createdAt,value
2022-10-02T00:02:39.782Z,5.17
2022-10-02T00:05:18.830Z,11.07
2022-10-02T00:07:52.146Z,7.30
2022-10-02T00:10:37.418Z,11.35
2022-10-02T00:13:27.338Z,11.63
2022-10-02T00:15:55.040Z,14.68
2022-10-02T00:18:25.830Z,8.38
2022-10-02T00:21:12.820Z,9.05
2022-10-02T00:23:59.814Z,10.65
2022-10-02T00:26:31.132Z,8.15
2022-10-02T00:29:26.674Z,8.23
2022-10-02T00:32:14.950Z,7.20
2022-10-02T00:35:03.021Z,10.48
2022-10-02T00:37:43.368Z,8.55
2022-10-02T00:40:21.736Z,9.63
2022-10-02T00:43:11.536Z,6.43
2022-10-02T00:46:15.015Z,8.23
2022-10-02T00:48:56.392Z,8.95
2022-10-02T00:51:40.465Z,7.97
2022-10-02T00:54:12.189Z,4.50
2022-10-02T00:57:04.695Z,4.32
2022-10-02T00:59:40.030Z,5.85
2022-10-02T01:02:32.031Z,8.13
2022-10-02T01:05:00.541Z,9.95
2022-10-02T01:07:27.913Z,8.27
2022-10-02T01:09:55.053Z,10.05
2022-10-02T01:12:23.000Z,3.92
2022-10-02T01:14:49.769Z,7.30
2022-10-02T01:17:34.858Z,6.70
2022-10-02T01:20:07.469Z,7.50
2022-10-02T01:22:52.695Z,8.93
2022-10-02T01:25:19.256Z,8.93
2022-10-02T01:30:17.393Z,14.07
2022-10-02T01:32:53.212Z,5.35
2022-10-02T01:35:22.777Z,10.90
2022-10-02T01:37:51.044Z,5.95
2022-10-02T01:40:27.326Z,8.32
2022-10-02T01:42:57.935Z,7.73
2022-10-02T01:45:50.559Z,4.80
2022-10-02T01:48:23.498Z,14.00
2022-10-02T01:51:08.224Z,8.68
2022-10-02T01:53:48.321Z,9.68
2022-10-02T01:56:27.523Z,9.60
2022-10-02T01:59:15.743Z,10.20
2022-10-02T02:01:57.127Z,8.57
2022-10-02T02:04:33.998Z,10.05
2022-10-02T02:07:18.640Z,8.45
2022-10-02T02:09:59.430Z,14.68
2022-10-02T02:12:45.602Z,10.80
2022-10-02T02:15:42.547Z,17.77
2022-10-02T02:18:34.242Z,9.15
2022-10-02T02:21:21.986Z,9.48
2022-10-02T02:23:50.360Z,7.45
2022-10-02T02:26:19.925Z,12.32
2022-10-02T02:28:51.902Z,12.35
2022-10-02T02:31:23.734Z,10.35
2022-10-02T02:33:59.380Z,11.38
2022-10-02T02:36:33.020Z,7.80
2022-10-02T02:39:05.154Z,12.88
2022-10-02T02:41:38.534Z,13.82
2022-10-02T02:44:12.160Z,9.00
2022-10-02T02:47:03.883Z,11.52
2022-10-02T02:49:39.546Z,12.57
2022-10-02T02:52:09.400Z,13.20
2022-10-02T02:54:48.273Z,9.88
2022-10-02T02:57:17.981Z,9.55
2022-10-02T02:59:49.345Z,14.57
2022-10-02T03:02:16.019Z,13.95
2022-10-02T03:04:42.615Z,14.07
2022-10-02T03:09:40.645Z,15.75
2022-10-02T03:12:28.057Z,9.52
2022-10-02T03:15:06.924Z,14.23
2022-10-02T03:17:57.649Z,9.02
2022-10-02T03:20:47.471Z,11.00
2022-10-02T03:23:33.030Z,14.35
2022-10-02T03:26:21.184Z,11.05
2022-10-02T03:28:56.652Z,12.63
2022-10-02T03:31:27.337Z,9.95
2022-10-02T03:33:54.859Z,12.55
2022-10-02T03:36:22.479Z,9.25
2022-10-02T03:39:00.768Z,8.63
2022-10-02T03:41:36.653Z,7.75
2022-10-02T03:46:29.884Z,10.70
2022-10-02T03:48:56.629Z,11.45
2022-10-02T03:51:24.355Z,8.52
2022-10-02T03:53:51.011Z,8.02
2022-10-02T03:58:53.528Z,6.43
2022-10-02T04:01:27.223Z,3.95
2022-10-02T04:04:04.234Z,8.63
2022-10-02T04:07:00.844Z,7.53
2022-10-02T04:10:11.197Z,9.63
2022-10-02T04:12:41.599Z,8.35
2022-10-02T04:15:30.574Z,4.72
2022-10-02T04:18:06.149Z,5.63
2022-10-02T04:20:43.859Z,5.03
2022-10-02T04:23:46.079Z,9.77
2022-10-02T04:26:21.493Z,6.40
2022-10-02T04:28:57.007Z,5.57
2022-10-02T04:31:27.242Z,3.97
2022-10-02T04:34:02.187Z,6.45
2022-10-02T04:36:43.570Z,4.35
2022-10-02T04:39:25.559Z,7.57
2022-10-02T04:42:08.823Z,5.57
2022-10-02T04:44:48.169Z,6.55
2022-10-02T04:47:39.201Z,9.45
2022-10-02T04:50:21.291Z,6.15
2022-10-02T04:53:15.221Z,3.17
2022-10-02T04:56:09.290Z,4.00
2022-10-02T04:58:59.752Z,5.05
2022-10-02T05:01:54.541Z,3.80
2022-10-02T05:04:53.525Z,5.03
2022-10-02T05:07:45.890Z,10.40
2022-10-02T05:10:40.472Z,8.48
2022-10-02T05:13:41.306Z,9.10
2022-10-02T05:16:32.414Z,8.73
2022-10-02T05:19:29.129Z,13.85
2022-10-02T05:22:23.040Z,8.95
2022-10-02T05:25:43.354Z,7.10
2022-10-02T05:28:34.353Z,4.65
2022-10-02T05:31:44.100Z,6.60
2022-10-02T05:34:31.276Z,7.32
2022-10-02T05:36:58.040Z,16.30
2022-10-02T05:39:29.949Z,10.48
2022-10-02T05:42:23.837Z,10.23
2022-10-02T05:45:02.097Z,7.35
2022-10-02T05:47:31.722Z,9.35
2022-10-02T05:50:18.452Z,7.57
2022-10-02T05:53:00.443Z,8.98
2022-10-02T05:55:52.741Z,12.13
2022-10-02T05:58:51.403Z,10.10
2022-10-02T06:01:28.736Z,9.65
2022-10-02T06:04:19.569Z,6.65
2022-10-02T06:06:51.536Z,8.60
2022-10-02T06:09:33.622Z,6.88
2022-10-02T06:12:00.133Z,5.80
2022-10-02T06:14:47.330Z,4.72
2022-10-02T06:17:27.475Z,8.82
2022-10-02T06:20:16.664Z,10.20
2022-10-02T06:23:20.411Z,12.05
2022-10-02T06:26:01.275Z,12.63
2022-10-02T06:28:50.865Z,7.55
2022-10-02T06:31:46.052Z,7.82
2022-10-02T06:34:14.399Z,13.75
2022-10-02T06:36:53.867Z,16.15
2022-10-02T06:39:20.326Z,12.52
2022-10-02T06:42:05.218Z,9.32
2022-10-02T06:45:03.609Z,16.58
2022-10-02T06:47:49.106Z,7.47
2022-10-02T06:51:03.729Z,11.23
2022-10-02T06:53:56.245Z,14.75
2022-10-02T06:56:51.999Z,12.65
2022-10-02T06:59:26.469Z,12.75
2022-10-02T07:02:21.097Z,8.13
2022-10-02T07:05:07.920Z,11.13
2022-10-02T07:07:53.001Z,9.30
2022-10-02T07:10:34.405Z,10.40
2022-10-02T07:13:13.601Z,12.05
2022-10-02T07:16:12.610Z,11.15
2022-10-02T07:18:58.716Z,11.88
2022-10-02T07:21:32.807Z,9.57
2022-10-02T07:24:25.499Z,9.30
2022-10-02T07:27:08.029Z,11.68
2022-10-02T07:29:48.272Z,15.73
2022-10-02T07:32:41.284Z,6.80
2022-10-02T07:35:26.114Z,9.25
2022-10-02T07:38:01.671Z,5.07
2022-10-02T07:40:36.426Z,12.60
2022-10-02T07:43:36.876Z,8.85
2022-10-02T07:46:03.441Z,11.18
2022-10-02T07:51:35.000Z,8.77
2022-10-02T07:54:19.168Z,11.38
2022-10-02T07:56:48.499Z,10.75
2022-10-02T07:59:18.805Z,7.85
2022-10-02T08:01:48.154Z,8.77
2022-10-02T08:04:18.844Z,11.68
2022-10-02T08:06:49.740Z,5.80
2022-10-02T08:09:22.599Z,16.52
2022-10-02T08:11:56.136Z,10.98
2022-10-02T08:14:25.410Z,10.68
2022-10-02T08:16:55.189Z,16.55
2022-10-02T08:19:32.997Z,11.05
2022-10-02T08:22:06.031Z,13.02
2022-10-02T08:24:54.875Z,8.75
2022-10-02T08:27:28.123Z,5.13
2022-10-02T08:30:03.726Z,9.25
2022-10-02T08:32:36.555Z,13.65
2022-10-02T08:35:14.185Z,8.38
2022-10-02T08:38:12.706Z,9.20
2022-10-02T08:41:43.864Z,9.63
2022-10-02T08:44:10.353Z,9.90
2022-10-02T08:46:39.990Z,7.50
2022-10-02T08:49:28.482Z,6.93
2022-10-02T08:52:05.475Z,8.82
2022-10-02T08:54:43.153Z,10.65
2022-10-02T08:57:27.672Z,12.27
2022-10-02T09:00:20.677Z,10.48
2022-10-02T09:03:25.838Z,11.38
2022-10-02T09:06:21.926Z,4.43
2022-10-02T09:09:23.542Z,6.85
2022-10-02T09:12:41.250Z,6.57
2022-10-02T09:15:20.701Z,14.05
2022-10-02T09:18:03.330Z,12.73
2022-10-02T09:21:13.621Z,5.78
2022-10-02T09:23:43.226Z,2.85
2022-10-02T09:26:25.538Z,8.02
2022-10-02T09:29:07.238Z,8.18
2022-10-02T09:32:07.494Z,9.63
2022-10-02T09:34:58.334Z,6.18
2022-10-02T09:37:50.597Z,5.50
2022-10-02T09:40:46.221Z,6.63
2022-10-02T09:43:37.760Z,6.75
2022-10-02T09:46:04.285Z,5.07
2022-10-02T09:51:44.477Z,5.95
2022-10-02T09:54:47.662Z,4.50
2022-10-02T09:57:36.079Z,10.27
2022-10-02T10:00:26.973Z,6.05
2022-10-02T10:03:23.648Z,8.55
2022-10-02T10:06:26.768Z,9.13
2022-10-02T10:09:25.414Z,3.63
2022-10-02T10:12:30.495Z,5.25
2022-10-02T10:33:15.166Z,7.72
2022-10-02T10:36:38.258Z,8.38
2022-10-02T10:39:31.623Z,5.47
2022-10-02T10:42:07.255Z,4.78
2022-10-02T10:45:02.119Z,3.88
2022-10-02T10:47:43.978Z,4.95
2022-10-02T10:50:35.855Z,6.38
2022-10-02T10:53:28.263Z,3.28
2022-10-02T10:56:14.487Z,4.88
2022-10-02T10:59:19.818Z,4.85
2022-10-02T11:02:08.084Z,2.70
2022-10-02T11:04:52.318Z,2.10
2022-10-02T11:07:42.639Z,1.95
2022-10-02T11:10:27.900Z,2.17
2022-10-02T11:13:12.706Z,1.67
2022-10-02T11:15:54.733Z,1.45
2022-10-02T11:18:34.589Z,2.80
2022-10-02T11:21:25.981Z,1.42
2022-10-02T11:24:13.751Z,4.03
2022-10-02T11:29:38.152Z,1.70
2022-10-02T11:32:35.370Z,2.08
2022-10-02T11:35:15.221Z,1.33
2022-10-02T11:37:53.888Z,1.88
2022-10-02T11:40:42.893Z,4.93
2022-10-02T11:43:38.457Z,2.50
2022-10-02T11:46:37.021Z,1.52
2022-10-02T11:49:20.280Z,3.90
2022-10-02T11:52:02.083Z,2.00
2022-10-02T11:54:57.572Z,3.58
2022-10-02T11:57:48.044Z,1.55
2022-10-02T12:00:44.086Z,2.10
2022-10-02T12:03:19.670Z,1.42
2022-10-02T12:06:07.153Z,1.20
2022-10-02T12:08:59.904Z,1.88
2022-10-02T12:11:58.711Z,5.75
2022-10-02T12:14:31.914Z,1.90
2022-10-02T12:17:05.653Z,2.35
2022-10-02T12:20:16.127Z,1.30
2022-10-02T12:23:47.388Z,1.10
2022-10-02T12:26:58.864Z,1.83
2022-10-02T12:29:42.291Z,2.13
2022-10-02T12:32:23.370Z,2.15
2022-10-02T12:34:52.648Z,2.80
2022-10-02T12:37:42.205Z,1.30
2022-10-02T12:40:32.547Z,1.23
2022-10-02T12:43:50.581Z,0.90
2022-10-02T12:46:46.301Z,0.80
2022-10-02T12:49:28.508Z,1.13
2022-10-02T12:52:18.430Z,1.58
2022-10-02T12:55:18.949Z,2.08
2022-10-02T12:57:55.941Z,1.70
2022-10-02T13:00:42.703Z,1.50
2022-10-02T13:03:15.380Z,2.03
2022-10-02T13:06:03.498Z,1.33
2022-10-02T13:08:41.315Z,3.25
2022-10-02T13:11:34.345Z,1.58
2022-10-02T13:14:35.002Z,1.13
2022-10-02T13:17:09.757Z,4.53
2022-10-02T13:19:42.122Z,2.20
2022-10-02T13:22:24.972Z,1.55
2022-10-02T13:25:26.583Z,22.05
2022-10-02T13:28:30.290Z,10.13
2022-10-02T13:31:02.945Z,6.45
2022-10-02T13:33:55.940Z,5.95
2022-10-02T13:36:36.062Z,15.25
2022-10-02T13:39:33.644Z,8.38
2022-10-02T13:42:22.120Z,6.70
2022-10-02T13:45:08.457Z,2.35
2022-10-02T13:47:53.638Z,3.83
2022-10-02T13:50:31.959Z,1.70
2022-10-02T13:53:04.498Z,1.40
2022-10-02T13:55:35.898Z,1.73
2022-10-02T13:58:05.346Z,1.83
2022-10-02T14:00:37.667Z,1.67
2022-10-02T14:03:35.837Z,1.33
2022-10-02T14:09:10.568Z,1.17
2022-10-02T14:12:02.702Z,1.17
2022-10-02T14:14:56.728Z,1.73
2022-10-02T14:17:32.210Z,1.08
2022-10-02T14:20:35.888Z,2.67
2022-10-02T14:23:21.074Z,1.15
2022-10-02T14:25:53.583Z,0.90
2022-10-02T14:28:33.601Z,5.30
2022-10-02T14:31:06.146Z,1.40
2022-10-02T14:33:54.277Z,1.50
2022-10-02T14:36:51.981Z,1.17
2022-10-02T14:39:27.639Z,1.27
2022-10-02T14:42:14.333Z,2.40
2022-10-02T14:45:22.578Z,1.65
2022-10-02T14:48:21.252Z,1.60
2022-10-02T14:50:50.592Z,0.82
2022-10-02T14:53:40.357Z,1.20
2022-10-02T14:56:20.302Z,1.00
2022-10-02T14:59:11.008Z,2.00
2022-10-02T15:01:46.824Z,1.48
2022-10-02T15:04:48.910Z,3.15
2022-10-02T15:07:20.708Z,4.80
2022-10-02T15:10:21.211Z,1.98
2022-10-02T15:13:10.314Z,1.20
2022-10-02T15:16:29.765Z,1.33
2022-10-02T15:21:58.753Z,1.08
2022-10-02T15:24:32.422Z,7.40
2022-10-02T15:27:45.217Z,1.77
2022-10-02T15:30:26.675Z,1.00
2022-10-02T15:33:08.889Z,0.80
2022-10-02T15:36:03.451Z,1.55
2022-10-02T15:38:48.214Z,0.90
2022-10-02T15:41:32.068Z,5.70
2022-10-02T15:44:07.606Z,4.43
2022-10-02T15:46:46.558Z,1.13
2022-10-02T15:49:36.719Z,1.10
2022-10-02T15:52:24.484Z,0.98
2022-10-02T15:57:36.209Z,2.58
2022-10-02T16:00:18.513Z,1.20
2022-10-02T16:03:03.441Z,1.50
2022-10-02T16:05:53.243Z,1.30
2022-10-02T16:08:31.397Z,2.15
2022-10-02T16:11:17.824Z,2.28
2022-10-02T16:14:07.737Z,2.10
2022-10-02T16:17:10.832Z,1.00
2022-10-02T16:20:14.380Z,4.80
2022-10-02T16:22:55.828Z,1.10
2022-10-02T16:25:35.426Z,0.90
2022-10-02T16:28:13.200Z,0.95
2022-10-02T16:30:48.767Z,1.25
2022-10-02T16:33:31.962Z,1.25
2022-10-02T16:36:16.770Z,8.48
2022-10-02T16:38:46.348Z,1.30
2022-10-02T16:41:36.860Z,1.20
2022-10-02T16:44:39.698Z,1.58
2022-10-02T16:47:20.267Z,2.80
2022-10-02T16:50:14.307Z,1.85
2022-10-02T16:53:13.037Z,2.53
2022-10-02T16:55:43.915Z,5.28
2022-10-02T16:58:29.602Z,17.85
2022-10-02T17:01:01.002Z,5.13
2022-10-02T17:03:58.736Z,3.88
2022-10-02T17:06:43.886Z,4.18
2022-10-02T17:09:21.085Z,4.97
2022-10-02T17:14:25.850Z,4.00
2022-10-02T17:16:52.534Z,5.45
2022-10-02T17:21:57.988Z,4.90
2022-10-02T17:24:42.923Z,4.22
2022-10-02T17:27:16.056Z,3.20
2022-10-02T17:30:16.467Z,2.28
2022-10-02T17:32:45.944Z,3.83
2022-10-02T17:35:41.860Z,6.18
2022-10-02T17:38:29.758Z,8.40
2022-10-02T17:41:19.738Z,6.50
2022-10-02T17:43:55.166Z,3.95
2022-10-02T17:46:43.005Z,2.10
2022-10-02T17:49:28.374Z,11.10
2022-10-02T17:52:32.596Z,5.32
2022-10-02T17:55:25.009Z,12.43
2022-10-02T17:58:05.738Z,9.30
2022-10-02T18:00:39.615Z,7.30
2022-10-02T18:03:31.732Z,5.65
2022-10-02T18:06:19.209Z,6.38
2022-10-02T18:09:03.759Z,7.30
2022-10-02T18:11:47.439Z,8.00
2022-10-02T18:14:36.414Z,3.70
2022-10-02T18:17:07.931Z,2.00
2022-10-02T18:19:51.167Z,2.67
2022-10-02T18:22:33.980Z,2.40
2022-10-02T18:25:12.268Z,2.30
2022-10-02T18:27:42.175Z,3.03
2022-10-02T18:30:23.376Z,2.30
2022-10-02T18:33:12.049Z,1.85
2022-10-02T18:35:57.305Z,19.27
2022-10-02T18:38:49.875Z,11.40
2022-10-02T18:41:44.673Z,6.65
2022-10-02T18:44:38.018Z,9.43
2022-10-02T18:47:31.550Z,8.73
2022-10-02T18:50:34.573Z,4.30
2022-10-02T18:53:19.937Z,3.15
2022-10-02T18:56:07.516Z,3.33
2022-10-02T18:59:08.822Z,6.05
2022-10-02T19:01:50.957Z,3.97
2022-10-02T19:04:30.322Z,9.85
2022-10-02T19:07:11.131Z,9.05
2022-10-02T19:09:37.738Z,5.25
2022-10-02T19:14:56.099Z,2.58
2022-10-02T19:17:28.086Z,2.35
2022-10-02T19:19:55.768Z,3.50
2022-10-02T19:22:31.989Z,1.55
2022-10-02T19:25:04.761Z,1.70
2022-10-02T19:27:37.091Z,4.45
2022-10-02T19:30:21.374Z,3.05
2022-10-02T19:32:51.019Z,1.60
2022-10-02T19:35:23.400Z,1.77
2022-10-02T19:37:52.833Z,1.60
2022-10-02T19:40:26.141Z,2.00
2022-10-02T19:43:00.863Z,4.53
2022-10-02T19:45:32.687Z,2.28
2022-10-02T19:48:09.459Z,2.97
2022-10-02T19:50:51.116Z,8.07
2022-10-02T19:53:23.515Z,3.50
2022-10-02T19:55:55.873Z,3.85
2022-10-02T19:58:36.130Z,2.10
2022-10-02T20:01:05.608Z,2.35
2022-10-02T20:03:32.921Z,2.10
2022-10-02T20:06:18.086Z,3.40
2022-10-02T20:08:50.377Z,3.28
2022-10-02T20:11:24.371Z,5.75
2022-10-02T20:13:57.113Z,2.45
2022-10-02T20:16:44.059Z,14.65
2022-10-02T20:19:32.538Z,5.50
2022-10-02T20:22:06.137Z,3.70
2022-10-02T20:24:39.677Z,2.30
2022-10-02T20:27:17.554Z,7.18
2022-10-02T20:29:48.477Z,4.10
2022-10-02T20:32:38.965Z,3.88
2022-10-02T20:35:15.710Z,5.43
2022-10-02T20:37:45.479Z,8.23
2022-10-02T20:40:17.375Z,2.80
2022-10-02T20:42:59.510Z,4.20
2022-10-02T20:45:54.988Z,6.72
2022-10-02T20:48:49.183Z,7.47
2022-10-02T20:51:51.752Z,5.50
2022-10-02T20:54:37.642Z,9.55
2022-10-02T21:00:22.906Z,9.15
2022-10-02T21:03:20.419Z,5.57
2022-10-02T21:06:04.692Z,4.80
2022-10-02T21:08:37.022Z,9.07
2022-10-02T21:11:26.588Z,4.75
2022-10-02T21:14:30.616Z,10.38
2022-10-02T21:17:25.139Z,8.80
2022-10-02T21:20:33.147Z,6.75
2022-10-02T21:23:36.804Z,12.43
2022-10-02T21:26:06.016Z,12.10
2022-10-02T21:29:15.400Z,6.18
2022-10-02T21:32:22.689Z,10.57
2022-10-02T21:35:07.399Z,9.32
2022-10-02T21:37:47.254Z,7.70
2022-10-02T21:40:43.844Z,7.30
2022-10-02T21:43:32.237Z,8.60
2022-10-02T21:46:27.012Z,17.23
2022-10-02T21:49:24.210Z,10.98
2022-10-02T21:52:20.355Z,15.70
2022-10-02T21:55:02.384Z,15.68
2022-10-02T21:57:58.673Z,11.50
2022-10-02T22:18:13.788Z,13.52
2022-10-02T22:21:30.941Z,11.05
2022-10-02T22:24:14.905Z,12.52
2022-10-02T22:27:09.274Z,9.50
2022-10-02T22:29:53.954Z,11.90
2022-10-02T22:32:48.007Z,15.00
2022-10-02T22:35:39.390Z,9.90
2022-10-02T22:38:22.368Z,14.02
2022-10-02T22:40:52.927Z,10.27
2022-10-02T22:43:34.709Z,17.77
2022-10-02T22:46:41.358Z,11.93
2022-10-02T22:49:29.421Z,18.17
2022-10-02T22:52:00.935Z,12.25
2022-10-02T22:54:51.505Z,13.13
2022-10-02T22:57:38.749Z,9.45
2022-10-02T23:00:12.176Z,12.00
2022-10-02T23:03:03.842Z,12.38
2022-10-02T23:05:33.117Z,7.97
2022-10-02T23:08:05.930Z,11.25
2022-10-02T23:10:43.595Z,9.35
2022-10-02T23:13:21.915Z,12.18
2022-10-02T23:16:08.262Z,17.00
2022-10-02T23:18:59.038Z,9.82
2022-10-02T23:21:46.812Z,10.35
2022-10-02T23:24:37.070Z,17.25
2022-10-02T23:27:13.849Z,13.05
2022-10-02T23:29:59.612Z,13.32
2022-10-02T23:32:43.248Z,17.00
2022-10-02T23:35:19.993Z,15.40
2022-10-02T23:37:53.657Z,15.02
2022-10-02T23:40:48.816Z,18.02
2022-10-02T23:43:29.950Z,18.83
2022-10-02T23:46:03.788Z,22.83
2022-10-02T23:48:32.429Z,21.67
2022-10-02T23:51:22.650Z,15.90
2022-10-02T23:54:23.703Z,27.60
2022-10-02T23:57:02.028Z,17.05
2022-10-02T23:59:50.087Z,14.85
